createdAt,value
2024-02-01T00:01:36.307Z,96218.31
2024-02-01T00:04:03.872Z,96228.75
2024-02-01T00:06:32.812Z,96221.75
2024-02-01T00:09:00.453Z,96219.88
2024-02-01T00:11:28.008Z,96209.53
2024-02-01T00:13:55.507Z,96206.09
2024-02-01T00:16:23.417Z,96192.22
2024-02-01T00:18:51.211Z,96198.28
2024-02-01T00:21:19.825Z,96198.28
2024-02-01T00:23:48.815Z,96203.50
2024-02-01T00:26:16.296Z,96208.72
2024-02-01T00:28:43.820Z,96209.66
2024-02-01T00:31:11.314Z,96205.25
2024-02-01T00:33:39.263Z,96206.19
2024-02-01T00:36:07.075Z,96211.41
2024-02-01T00:38:36.252Z,96200.97
2024-02-01T00:41:05.496Z,96196.72
2024-02-01T00:43:33.018Z,96195.75
2024-02-01T00:46:00.981Z,96200.19
2024-02-01T00:48:29.246Z,96191.50
2024-02-01T00:50:56.948Z,96194.13
2024-02-01T00:53:24.629Z,96201.13
2024-02-01T00:55:52.136Z,96204.56
2024-02-01T00:58:21.063Z,96207.16
2024-02-01T01:00:49.003Z,96209.88
2024-02-01T01:03:17.019Z,96209.88
2024-02-01T01:05:45.740Z,96213.31
2024-02-01T01:08:14.901Z,96211.69
2024-02-01T01:10:42.462Z,96216.06
2024-02-01T01:13:10.178Z,96213.47
2024-02-01T01:15:39.055Z,96210.13
2024-02-01T01:18:06.735Z,96213.47
2024-02-01T01:20:34.361Z,96212.63
2024-02-01T01:23:02.061Z,96201.34
2024-02-01T01:25:29.848Z,96205.63
2024-02-01T01:27:57.337Z,96200.41
2024-02-01T01:30:24.849Z,96195.31
2024-02-01T01:32:53.807Z,96199.69
2024-02-01T01:35:21.326Z,96191.88
2024-02-01T01:37:48.850Z,96195.31
2024-02-01T01:40:16.442Z,96199.69
2024-02-01T01:42:45.605Z,96211.78
2024-02-01T01:45:13.250Z,96216.19
2024-02-01T01:47:40.961Z,96202.31
2024-02-01T01:50:10.495Z,96197.09
2024-02-01T01:52:38.815Z,96197.09
2024-02-01T01:55:07.287Z,96192.72
2024-02-01T01:57:35.033Z,96202.44
2024-02-01T02:00:03.342Z,96203.25
2024-02-01T02:02:32.694Z,96200.63
2024-02-01T02:05:01.475Z,96200.63
2024-02-01T02:07:30.338Z,96193.66
2024-02-01T02:10:01.480Z,96190.19
2024-02-01T02:12:29.529Z,96191.16
2024-02-01T02:14:59.156Z,96189.41
2024-02-01T02:17:27.833Z,96191.03
2024-02-01T02:19:55.608Z,96195.41
2024-02-01T02:22:25.607Z,96189.41
2024-02-01T02:24:53.906Z,96198.03
2024-02-01T02:27:21.548Z,96194.63
2024-02-01T02:29:49.373Z,96195.41
2024-02-01T02:32:16.928Z,96204.22
2024-02-01T02:34:43.712Z,96204.22
2024-02-01T02:37:11.489Z,96193.78
2024-02-01T02:39:40.359Z,96202.44
2024-02-01T02:42:10.681Z,96197.31
2024-02-01T02:44:38.241Z,96207.66
2024-02-01T02:47:05.925Z,96207.66
2024-02-01T02:49:34.058Z,96203.38
2024-02-01T02:52:01.614Z,96208.59
2024-02-01T02:54:29.115Z,96212.97
2024-02-01T02:56:58.245Z,96208.59
2024-02-01T02:59:25.993Z,96207.75
2024-02-01T03:01:55.581Z,96205.16
2024-02-01T03:04:23.550Z,96206.94
2024-02-01T03:06:51.134Z,96207.75
2024-02-01T03:09:18.755Z,96200.78
2024-02-01T03:11:46.296Z,96197.31
2024-02-01T03:14:15.566Z,96198.16
2024-02-01T03:16:43.593Z,96199.09
2024-02-01T03:19:12.746Z,96197.31
2024-02-01T03:21:40.884Z,96197.31
2024-02-01T03:24:08.598Z,96199.94
2024-02-01T03:26:36.572Z,96199.94
2024-02-01T03:29:05.286Z,96207.75
2024-02-01T03:31:35.626Z,96204.22
2024-02-01T03:34:06.679Z,96199.00
2024-02-01T03:36:37.397Z,96190.31
2024-02-01T03:39:23.333Z,96201.59
2024-02-01T03:41:51.226Z,96199.00
2024-02-01T03:44:18.753Z,96199.84
2024-02-01T03:46:47.633Z,96201.59
2024-02-01T03:49:15.562Z,96195.41
2024-02-01T03:51:43.297Z,96196.38
2024-02-01T03:54:11.287Z,96200.63
2024-02-01T03:56:38.927Z,96194.63
2024-02-01T03:59:09.917Z,96199.84
2024-02-01T04:01:37.772Z,96195.41
2024-02-01T04:04:07.363Z,96191.16
2024-02-01T04:06:36.916Z,96188.44
2024-02-01T04:09:06.049Z,96198.88
2024-02-01T04:11:34.214Z,96203.25
2024-02-01T04:14:01.913Z,96196.38
2024-02-01T04:16:30.308Z,96204.22
2024-02-01T04:18:57.958Z,96203.38
2024-02-01T04:21:28.737Z,96201.59
2024-02-01T04:23:56.568Z,96202.44
2024-02-01T04:26:24.141Z,96208.59
2024-02-01T04:28:53.447Z,96205.06
2024-02-01T04:31:21.223Z,96201.59
2024-02-01T04:33:48.957Z,96199.84
2024-02-01T04:36:16.553Z,96197.31
2024-02-01T04:38:45.401Z,96208.59
2024-02-01T04:41:12.946Z,96203.38
2024-02-01T04:43:41.872Z,96204.31
2024-02-01T04:46:09.568Z,96211.34
2024-02-01T04:48:37.974Z,96212.13
2024-02-01T04:51:07.138Z,96202.66
2024-02-01T04:53:34.824Z,96206.94
2024-02-01T04:56:04.106Z,96205.28
2024-02-01T04:58:31.790Z,96211.34
2024-02-01T05:00:59.333Z,96207.06
2024-02-01T05:03:29.595Z,96220.94
2024-02-01T05:06:01.537Z,96205.16
2024-02-01T05:08:29.562Z,96215.59
2024-02-01T05:10:58.231Z,96210.38
2024-02-01T05:13:31.524Z,96202.44
2024-02-01T05:15:59.709Z,96201.59
2024-02-01T05:18:27.904Z,96196.25
2024-02-01T05:20:55.699Z,96192.72
2024-02-01T05:23:23.297Z,96192.72
2024-02-01T05:25:51.347Z,96193.41
2024-02-01T05:28:19.439Z,96174.31
2024-02-01T05:30:48.509Z,96173.47
2024-02-01T05:33:16.186Z,96177.75
2024-02-01T05:35:44.059Z,96171.69
2024-02-01T05:38:11.684Z,96179.53
2024-02-01T05:40:40.157Z,96173.34
2024-02-01T05:43:08.414Z,96172.53
2024-02-01T05:45:35.942Z,96176.91
2024-02-01T05:48:05.639Z,96180.38
2024-02-01T05:50:33.383Z,96171.69
2024-02-01T05:53:00.966Z,96172.63
2024-02-01T05:55:28.737Z,96168.25
2024-02-01T05:57:56.218Z,96166.63
2024-02-01T06:00:25.138Z,96168.25
2024-02-01T06:02:53.442Z,96173.47
2024-02-01T06:05:22.492Z,96168.25
2024-02-01T06:07:50.112Z,96172.53
2024-02-01T06:10:17.727Z,96170.88
2024-02-01T06:12:45.558Z,96167.41
2024-02-01T06:15:13.584Z,96172.63
2024-02-01T06:17:41.668Z,96163.03
2024-02-01T06:20:11.344Z,96158.78
2024-02-01T06:22:40.335Z,96175.25
2024-02-01T06:25:12.691Z,96177.06
2024-02-01T06:27:40.337Z,96181.44
2024-02-01T06:30:11.573Z,96187.50
2024-02-01T06:32:41.170Z,96192.72
2024-02-01T06:35:15.041Z,96187.50
2024-02-01T06:37:44.577Z,96184.88
2024-02-01T06:40:27.931Z,96180.47
2024-02-01T06:43:10.602Z,96181.31
2024-02-01T06:45:46.126Z,96184.88
2024-02-01T06:48:14.478Z,96182.28
2024-02-01T06:50:56.197Z,96185.81
2024-02-01T06:53:35.098Z,96175.38
2024-02-01T06:56:08.719Z,96159.72
2024-02-01T06:58:49.618Z,96149.28
2024-02-01T07:01:25.759Z,96142.28
2024-02-01T07:03:58.991Z,96146.69
2024-02-01T07:09:21.079Z,96144.06
2024-02-01T07:12:10.796Z,96141.44
2024-02-01T07:14:40.276Z,96141.44
2024-02-01T07:17:24.830Z,96143.94
2024-02-01T07:19:57.401Z,96134.47
2024-02-01T07:22:40.332Z,96132.69
2024-02-01T07:25:33.532Z,96128.28
2024-02-01T07:28:18.283Z,96140.38
2024-02-01T07:31:03.243Z,96141.31
2024-02-01T07:33:49.238Z,96146.44
2024-02-01T07:36:36.119Z,96150.00
2024-02-01T07:39:21.080Z,96156.88
2024-02-01T07:42:07.379Z,96158.53
2024-02-01T07:44:52.306Z,96165.41
2024-02-01T07:47:37.361Z,96179.31
2024-02-01T07:50:22.579Z,96174.88
2024-02-01T07:53:08.435Z,96174.88
2024-02-01T07:55:54.256Z,96184.38
2024-02-01T07:58:24.833Z,96196.47
2024-02-01T08:00:55.248Z,96201.69
2024-02-01T08:03:43.651Z,96205.13
2024-02-01T08:06:43.721Z,96211.31
2024-02-01T08:09:15.572Z,96216.41
2024-02-01T08:11:43.865Z,96222.69
2024-02-01T08:14:13.636Z,96220.94
2024-02-01T08:16:42.318Z,96227.91
2024-02-01T08:19:17.212Z,96233.13
2024-02-01T08:21:48.035Z,96233.13
2024-02-01T08:24:15.602Z,96234.91
2024-02-01T08:26:44.529Z,96247.97
2024-02-01T08:29:15.316Z,96246.31
2024-02-01T08:31:42.913Z,96244.53
2024-02-01T08:34:16.311Z,96242.75
2024-02-01T08:36:44.999Z,96248.94
2024-02-01T08:39:13.103Z,96256.75
2024-02-01T08:41:41.408Z,96255.09
2024-02-01T08:44:08.999Z,96262.91
2024-02-01T08:46:37.839Z,96265.53
2024-02-01T08:49:05.519Z,96256.84
2024-02-01T08:51:33.045Z,96256.75
2024-02-01T08:54:00.616Z,96254.25
2024-02-01T08:56:37.774Z,96234.19
2024-02-01T08:59:06.667Z,96228.16
2024-02-01T09:01:35.442Z,96225.53
2024-02-01T09:04:15.500Z,96219.38
2024-02-01T09:06:55.349Z,96221.16
2024-02-01T09:09:31.168Z,96214.28
2024-02-01T09:11:59.621Z,96214.16
2024-02-01T09:14:27.548Z,96223.75
2024-02-01T09:16:55.146Z,96220.31
2024-02-01T09:19:24.216Z,96219.38
2024-02-01T09:21:52.376Z,96223.75
2024-02-01T09:24:20.109Z,96236.81
2024-02-01T09:26:48.182Z,96230.66
2024-02-01T09:29:15.896Z,96237.66
2024-02-01T09:31:44.257Z,96234.09
2024-02-01T09:34:16.021Z,96239.31
2024-02-01T09:36:45.970Z,96240.25
2024-02-01T09:39:13.594Z,96251.53
2024-02-01T09:41:42.230Z,96241.09
2024-02-01T09:44:11.334Z,96249.88
2024-02-01T09:46:38.992Z,96250.69
2024-02-01T09:49:12.780Z,96248.09
2024-02-01T09:51:48.140Z,96250.56
2024-02-01T09:54:16.101Z,96250.69
2024-02-01T09:56:43.933Z,96240.25
2024-02-01T09:59:13.531Z,96249.88
2024-02-01T10:01:41.245Z,96251.53
2024-02-01T10:04:10.860Z,96253.31
2024-02-01T10:06:39.721Z,96249.03
2024-02-01T10:09:22.752Z,96248.09
2024-02-01T10:11:51.548Z,96247.25
2024-02-01T10:14:19.283Z,96247.25
2024-02-01T10:16:47.707Z,96244.66
2024-02-01T10:19:15.959Z,96245.47
2024-02-01T10:21:56.176Z,96250.69
2024-02-01T10:24:28.091Z,96248.94
2024-02-01T10:27:03.339Z,96245.47
2024-02-01T10:29:30.853Z,96251.53
2024-02-01T10:32:02.424Z,96248.47
2024-02-01T10:34:31.292Z,96240.25
2024-02-01T10:37:02.174Z,96242.31
2024-02-01T10:39:35.840Z,96250.38
2024-02-01T10:42:09.795Z,96238.38
2024-02-01T10:44:40.862Z,96241.22
2024-02-01T10:47:14.230Z,96235.28
2024-02-01T10:49:44.293Z,96237.19
2024-02-01T10:52:12.832Z,96235.41
2024-02-01T10:54:43.604Z,96225.94
2024-02-01T10:57:12.075Z,96230.41
2024-02-01T10:59:40.328Z,96229.59
2024-02-01T11:02:08.221Z,96225.19
2024-02-01T11:04:36.529Z,96225.19
2024-02-01T11:07:04.145Z,96224.38
2024-02-01T11:09:32.965Z,96221.63
2024-02-01T11:12:04.735Z,96225.09
2024-02-01T11:14:33.222Z,96219.75
2024-02-01T11:17:03.771Z,96229.13
2024-02-01T11:19:36.693Z,96225.47
2024-02-01T11:22:08.098Z,96220.09
2024-02-01T11:24:36.655Z,96220.56
2024-02-01T11:27:13.720Z,96221.28
2024-02-01T11:29:46.572Z,96216.78
2024-02-01T11:32:17.885Z,96220.91
2024-02-01T11:34:50.864Z,96222.34
2024-02-01T11:37:19.004Z,96216.16
2024-02-01T11:39:47.710Z,96216.97
2024-02-01T11:42:21.035Z,96215.06
2024-02-01T11:45:00.651Z,96214.13
2024-02-01T11:47:28.644Z,96207.84
2024-02-01T11:49:56.696Z,96218.16
2024-02-01T11:52:34.039Z,96218.16
2024-02-01T11:55:01.644Z,96223.25
2024-02-01T11:57:33.219Z,96220.63
2024-02-01T12:00:04.179Z,96211.72
2024-02-01T12:02:31.961Z,96218.50
2024-02-01T12:05:01.532Z,96214.94
2024-02-01T12:07:29.252Z,96211.34
2024-02-01T12:09:57.267Z,96218.00
2024-02-01T12:12:25.225Z,96221.56
2024-02-01T12:14:55.689Z,96221.56
2024-02-01T12:17:25.620Z,96210.28
2024-02-01T12:19:57.914Z,96212.75
2024-02-01T12:22:30.480Z,96212.28
2024-02-01T12:24:59.420Z,96205.53
2024-02-01T12:27:26.997Z,96211.81
2024-02-01T12:29:55.957Z,96214.66
2024-02-01T12:32:23.507Z,96200.06
2024-02-01T12:34:51.077Z,96212.44
2024-02-01T12:37:18.723Z,96209.13
2024-02-01T12:39:46.316Z,96202.34
2024-02-01T12:42:16.396Z,96203.44
2024-02-01T12:44:44.788Z,96206.16
2024-02-01T12:47:13.679Z,96212.34
2024-02-01T12:49:44.570Z,96206.31
2024-02-01T12:52:12.125Z,96213.28
2024-02-01T12:54:41.448Z,96207.38
2024-02-01T12:57:10.149Z,96215.19
2024-02-01T12:59:38.506Z,96215.34
2024-02-01T13:02:06.895Z,96216.16
2024-02-01T13:04:36.114Z,96217.25
2024-02-01T13:07:05.060Z,96223.28
2024-02-01T13:09:35.054Z,96214.63
2024-02-01T13:12:19.676Z,96211.31
2024-02-01T13:14:59.130Z,96217.47
2024-02-01T13:17:27.484Z,96214.72
2024-02-01T13:19:56.521Z,96221.06
2024-02-01T13:22:24.386Z,96218.44
2024-02-01T13:24:51.929Z,96215.00
2024-02-01T13:27:19.525Z,96225.44
2024-02-01T13:29:47.577Z,96222.00
2024-02-01T13:32:16.031Z,96220.31
2024-02-01T13:34:44.950Z,96221.16
2024-02-01T13:37:13.989Z,96215.94
2024-02-01T13:39:43.875Z,96224.72
2024-02-01T13:42:11.861Z,96220.56
2024-02-01T13:44:40.553Z,96220.56
2024-02-01T13:47:09.255Z,96221.50
2024-02-01T13:49:37.909Z,96219.84
2024-02-01T13:52:07.503Z,96224.94
2024-02-01T13:54:36.334Z,96221.41
2024-02-01T13:57:03.865Z,96214.13
2024-02-01T13:59:31.959Z,96217.31
2024-02-01T14:01:59.488Z,96220.53
2024-02-01T14:04:27.095Z,96223.56
2024-02-01T14:06:55.354Z,96214.56
2024-02-01T14:09:23.988Z,96215.97
2024-02-01T14:11:53.195Z,96221.91
2024-02-01T14:14:20.747Z,96228.66
2024-02-01T14:16:48.238Z,96218.09
2024-02-01T14:19:15.842Z,96220.47
2024-02-01T14:21:43.487Z,96230.78
2024-02-01T14:24:11.033Z,96239.19
2024-02-01T14:26:38.584Z,96243.09
2024-02-01T14:29:08.821Z,96228.13
2024-02-01T14:31:36.434Z,96238.19
2024-02-01T14:34:04.054Z,96238.06
2024-02-01T14:36:31.927Z,96242.91
2024-02-01T14:38:59.471Z,96249.53
2024-02-01T14:41:29.258Z,96258.22
2024-02-01T14:43:57.007Z,96262.63
2024-02-01T14:46:25.876Z,96255.38
2024-02-01T14:48:53.442Z,96257.63
2024-02-01T14:51:21.091Z,96259.16
2024-02-01T14:53:48.626Z,96262.47
2024-02-01T14:56:16.206Z,96261.13
2024-02-01T14:58:43.739Z,96269.56
2024-02-01T15:01:11.444Z,96262.41
2024-02-01T15:03:40.337Z,96270.25
2024-02-01T15:06:08.376Z,96273.56
2024-02-01T15:08:35.898Z,96270.69
2024-02-01T15:11:03.390Z,96271.41
2024-02-01T15:13:30.904Z,96265.94
2024-02-01T15:16:00.382Z,96266.66
2024-02-01T15:18:29.711Z,96262.72
2024-02-01T15:20:58.770Z,96262.56
2024-02-01T15:23:26.590Z,96254.88
2024-02-01T15:25:54.905Z,96266.97
2024-02-01T15:28:22.462Z,96261.50
2024-02-01T15:30:50.341Z,96268.13
2024-02-01T15:33:20.486Z,96275.81
2024-02-01T15:35:48.229Z,96268.19
2024-02-01T15:38:17.172Z,96267.59
2024-02-01T15:40:44.649Z,96266.84
2024-02-01T15:43:13.790Z,96265.75
2024-02-01T15:45:41.352Z,96270.16
2024-02-01T15:48:09.440Z,96275.28
2024-02-01T15:50:38.262Z,96271.44
2024-02-01T15:53:09.394Z,96279.16
2024-02-01T15:55:41.201Z,96276.38
2024-02-01T15:58:09.512Z,96272.00
2024-02-01T16:00:36.992Z,96278.44
2024-02-01T16:03:05.500Z,96274.75
2024-02-01T16:05:48.330Z,96276.59
2024-02-01T16:08:15.934Z,96278.50
2024-02-01T16:10:47.182Z,96284.69
2024-02-01T16:13:14.829Z,96284.38
2024-02-01T16:15:42.482Z,96282.84
2024-02-01T16:18:14.016Z,96283.38
2024-02-01T16:20:43.612Z,96288.84
2024-02-01T16:23:11.947Z,96280.69
2024-02-01T16:25:39.638Z,96288.81
2024-02-01T16:28:09.024Z,96287.50
2024-02-01T16:30:50.538Z,96297.28
2024-02-01T16:33:22.259Z,96299.44
2024-02-01T16:35:51.351Z,96301.34
2024-02-01T16:38:20.799Z,96299.94
2024-02-01T16:40:48.700Z,96293.19
2024-02-01T16:43:22.333Z,96303.78
2024-02-01T16:45:50.285Z,96310.03
2024-02-01T16:48:18.371Z,96311.13
2024-02-01T16:50:47.795Z,96314.00
2024-02-01T16:53:24.104Z,96310.66
2024-02-01T16:55:54.385Z,96315.09
2024-02-01T16:58:41.320Z,96317.81
2024-02-01T17:01:10.010Z,96327.69
2024-02-01T17:03:37.678Z,96326.97
2024-02-01T17:06:07.406Z,96334.13
2024-02-01T17:08:41.196Z,96331.75
2024-02-01T17:11:08.891Z,96337.94
2024-02-01T17:13:38.649Z,96339.00
2024-02-01T17:16:07.758Z,96345.19
2024-02-01T17:18:39.588Z,96341.88
2024-02-01T17:21:07.575Z,96349.00
2024-02-01T17:23:35.149Z,96351.75
2024-02-01T17:26:11.138Z,96344.00
2024-02-01T17:28:41.235Z,96345.09
2024-02-01T17:31:13.660Z,96351.28
2024-02-01T17:33:57.790Z,96354.03
2024-02-01T17:36:25.876Z,96356.72
2024-02-01T17:38:53.683Z,96352.59
2024-02-01T17:41:21.744Z,96350.94
2024-02-01T17:43:52.322Z,96361.38
2024-02-01T17:46:43.986Z,96354.47
2024-02-01T17:49:19.068Z,96358.19
2024-02-01T17:51:48.572Z,96364.34
2024-02-01T17:54:22.599Z,96360.91
2024-02-01T17:56:51.712Z,96370.53
2024-02-01T17:59:28.664Z,96374.94
2024-02-01T18:01:56.263Z,96371.63
2024-02-01T18:04:38.558Z,96380.41
2024-02-01T18:07:08.974Z,96372.69
2024-02-01T18:09:36.843Z,96381.47
2024-02-01T18:12:05.172Z,96387.66
2024-02-01T18:14:34.161Z,96392.03
2024-02-01T18:17:01.971Z,96405.25
2024-02-01T18:19:29.727Z,96395.72
2024-02-01T18:21:57.414Z,96407.16
2024-02-01T18:24:34.963Z,96408.91
2024-02-01T18:27:02.686Z,96406.41
2024-02-01T18:29:43.739Z,96415.06
2024-02-01T18:32:15.186Z,96405.59
2024-02-01T18:34:42.907Z,96405.69
2024-02-01T18:37:11.467Z,96400.59
2024-02-01T18:39:39.051Z,96400.59
2024-02-01T18:42:07.532Z,96402.50
2024-02-01T18:44:37.164Z,96414.59
2024-02-01T18:47:08.045Z,96405.94
2024-02-01T18:49:37.594Z,96412.94
2024-02-01T18:52:06.792Z,96418.19
2024-02-01T18:54:36.024Z,96420.78
2024-02-01T18:57:04.509Z,96425.31
2024-02-01T18:59:56.064Z,96427.78
2024-02-01T19:02:53.522Z,96430.53
2024-02-01T19:05:22.648Z,96429.69
2024-02-01T19:07:55.179Z,96436.69
2024-02-01T19:10:31.622Z,96429.69
2024-02-01T19:12:59.172Z,96433.25
2024-02-01T19:15:47.503Z,96420.19
2024-02-01T19:18:16.784Z,96429.81
2024-02-01T19:20:46.117Z,96430.75
2024-02-01T19:23:18.262Z,96435.13
2024-02-01T19:25:46.382Z,96438.59
2024-02-01T19:28:28.237Z,96436.81
2024-02-01T19:30:55.837Z,96433.50
2024-02-01T19:33:25.230Z,96434.41
2024-02-01T19:35:54.779Z,96435.25
2024-02-01T19:38:25.285Z,96430.03
2024-02-01T19:40:54.583Z,96427.44
2024-02-01T19:43:23.124Z,96421.50
2024-02-01T19:45:50.790Z,96428.50
2024-02-01T19:48:19.711Z,96424.09
2024-02-01T19:50:47.782Z,96431.09
2024-02-01T19:53:16.789Z,96437.28
2024-02-01T19:55:44.364Z,96432.91
2024-02-01T19:58:11.922Z,96437.28
2024-02-01T20:00:39.649Z,96439.91
2024-02-01T20:03:07.345Z,96446.06
2024-02-01T20:05:34.888Z,96438.22
2024-02-01T20:08:02.511Z,96433.97
2024-02-01T20:10:31.845Z,96439.19
2024-02-01T20:12:59.680Z,96434.91
2024-02-01T20:15:27.593Z,96439.19
2024-02-01T20:17:55.572Z,96438.34
2024-02-01T20:20:23.709Z,96440.00
2024-02-01T20:22:51.688Z,96448.66
2024-02-01T20:25:21.479Z,96446.91
2024-02-01T20:27:53.916Z,96453.91
2024-02-01T20:30:21.749Z,96448.66
2024-02-01T20:32:50.342Z,96441.81
2024-02-01T20:35:18.241Z,96433.00
2024-02-01T20:37:50.545Z,96446.06
2024-02-01T20:40:35.407Z,96440.84
2024-02-01T20:43:05.215Z,96445.22
2024-02-01T20:45:32.879Z,96449.63
2024-02-01T20:48:00.606Z,96448.81
2024-02-01T20:50:33.905Z,96452.34
2024-02-01T20:53:02.028Z,96443.69
2024-02-01T20:55:30.219Z,96451.53
2024-02-01T20:58:05.945Z,96445.47
2024-02-01T21:00:35.176Z,96439.53
2024-02-01T21:03:04.182Z,96437.63
2024-02-01T21:05:35.377Z,96442.88
2024-02-01T21:08:05.459Z,96437.75
2024-02-01T21:10:45.010Z,96438.69
2024-02-01T21:13:13.708Z,96444.75
2024-02-01T21:15:43.690Z,96442.97
2024-02-01T21:18:13.918Z,96445.69
2024-02-01T21:20:44.925Z,96437.88
2024-02-01T21:23:31.058Z,96439.63
2024-02-01T21:26:31.852Z,96445.69
2024-02-01T21:29:01.386Z,96451.75
2024-02-01T21:31:45.907Z,96447.47
2024-02-01T21:34:15.181Z,96442.25
2024-02-01T21:36:43.392Z,96453.53
2024-02-01T21:39:26.609Z,96450.22
2024-02-01T21:41:54.214Z,96447.59
2024-02-01T21:44:21.812Z,96446.66
2024-02-01T21:46:50.769Z,96451.06
2024-02-01T21:49:18.406Z,96447.59
2024-02-01T21:51:45.999Z,96449.38
2024-02-01T21:54:13.598Z,96454.59
2024-02-01T21:56:42.842Z,96459.81
2024-02-01T21:59:15.867Z,96466.84
2024-02-01T22:01:43.443Z,96469.44
2024-02-01T22:04:12.378Z,96467.66
2024-02-01T22:06:40.038Z,96462.56
2024-02-01T22:09:07.764Z,96463.38
2024-02-01T22:11:35.376Z,96476.44
2024-02-01T22:14:02.928Z,96470.38
2024-02-01T22:16:30.462Z,96471.31
2024-02-01T22:18:58.188Z,96470.50
2024-02-01T22:21:28.114Z,96484.38
2024-02-01T22:23:55.657Z,96481.75
2024-02-01T22:26:23.241Z,96486.19
2024-02-01T22:28:50.823Z,96487.00
2024-02-01T22:31:19.471Z,96487.94
2024-02-01T22:33:47.319Z,96485.34
2024-02-01T22:36:14.998Z,96489.59
2024-02-01T22:38:43.956Z,96486.19
2024-02-01T22:41:11.558Z,96478.34
2024-02-01T22:43:39.088Z,96481.75
2024-02-01T22:46:06.681Z,96482.59
2024-02-01T22:48:34.438Z,96478.22
2024-02-01T22:51:02.092Z,96481.75
2024-02-01T22:53:29.668Z,96480.00
2024-02-01T22:55:58.788Z,96475.59
2024-02-01T22:58:26.322Z,96466.94
2024-02-01T23:00:53.935Z,96464.31
2024-02-01T23:03:21.817Z,96466.94
2024-02-01T23:05:49.575Z,96466.94
2024-02-01T23:08:17.154Z,96479.06
2024-02-01T23:10:44.745Z,96466.94
2024-02-01T23:13:14.309Z,96466.94
2024-02-01T23:15:41.861Z,96466.94
2024-02-01T23:18:09.481Z,96471.31
2024-02-01T23:20:37.062Z,96469.66
2024-02-01T23:23:05.218Z,96476.53
2024-02-01T23:25:33.920Z,96460.88
2024-02-01T23:28:01.555Z,96457.56
2024-02-01T23:30:30.794Z,96454.00
2024-02-01T23:32:58.568Z,96461.97
2024-02-01T23:35:26.201Z,96457.56
2024-02-01T23:37:55.445Z,96459.34
2024-02-01T23:40:23.063Z,96458.63
2024-02-01T23:42:50.641Z,96462.91
2024-02-01T23:45:17.305Z,96465.50
2024-02-01T23:47:46.339Z,96466.34
2024-02-01T23:50:14.134Z,96462.06
2024-02-01T23:52:43.257Z,96462.06
2024-02-01T23:55:11.187Z,96469.91
2024-02-01T23:57:40.842Z,96466.47
